Time;durP1;ratioP1;P1;durP2;ratioP2;P2;SDS_P1;SDS_P2;PMS_P1;PMS_P2;Temp;Humidity;BMP_temperature;BMP_pressure;BME280_temperature;BME280_humidity;BME280_pressure;Samples;Min_cycle;Max_cycle;Signal;HPM_P1;HPM_P2
2023/12/26 00:00:50;;;;;;;0.20;0.20;;;20.70;51.10;;;;;;4994610;28;20429;-53
2023/12/26 00:03:16;;;;;;;0.08;0.08;;;20.70;51.20;;;;;;4994532;28;20097;-50
2023/12/26 00:05:42;;;;;;;0.10;0.10;;;20.70;51.20;;;;;;4992302;28;20026;-54
2023/12/26 00:08:08;;;;;;;0.10;0.05;;;20.70;51.20;;;;;;4993469;28;20030;-51
2023/12/26 00:10:35;;;;;;;0.20;0.20;;;20.70;51.10;;;;;;4994335;28;20034;-54
2023/12/26 00:13:01;;;;;;;0.10;0.10;;;20.70;51.20;;;;;;4994131;28;20117;-53
2023/12/26 00:15:27;;;;;;;0.55;0.20;;;20.70;51.20;;;;;;4994076;28;20049;-53
2023/12/26 00:17:53;;;;;;;0.20;0.20;;;20.70;51.10;;;;;;4993437;28;20027;-55
2023/12/26 00:20:19;;;;;;;0.20;0.20;;;20.70;51.10;;;;;;4993900;28;20026;-50
2023/12/26 00:22:45;;;;;;;0.10;0.10;;;20.70;51.10;;;;;;4993834;28;20041;-51
2023/12/26 00:25:11;;;;;;;0.52;0.10;;;20.70;51.10;;;;;;4992864;28;20042;-55
2023/12/26 00:27:39;;;;;;;0.20;0.10;;;20.70;51.10;;;;;;4994228;28;20120;-56
2023/12/26 00:30:11;;;;;;;0.20;0.10;;;20.70;51.10;;;;;;4992848;28;20054;-55
2023/12/26 00:32:37;;;;;;;0.50;0.20;;;20.60;51.00;;;;;;4992678;28;20108;-49
2023/12/26 00:35:03;;;;;;;0.52;0.20;;;20.70;51.10;;;;;;4993774;28;20103;-51
2023/12/26 00:37:29;;;;;;;0.10;0.10;;;20.60;51.00;;;;;;4992477;28;20036;-58
2023/12/26 00:39:55;;;;;;;0.30;0.20;;;20.60;51.00;;;;;;4994115;28;20097;-52
2023/12/26 00:42:22;;;;;;;0.13;0.13;;;20.60;51.00;;;;;;4991951;28;20100;-51
2023/12/26 00:44:47;;;;;;;0.25;0.10;;;20.60;51.00;;;;;;4994321;28;20046;-55
2023/12/26 00:47:13;;;;;;;0.32;0.10;;;20.60;51.00;;;;;;4993322;28;20441;-53
2023/12/26 00:49:39;;;;;;;0.10;0.10;;;20.60;50.90;;;;;;4992657;28;20042;-53
2023/12/26 00:52:05;;;;;;;0.10;0.10;;;20.70;51.00;;;;;;4992620;28;20073;-56
2023/12/26 00:54:31;;;;;;;0.20;0.10;;;20.60;50.90;;;;;;4992552;28;20490;-50
2023/12/26 00:56:57;;;;;;;0.10;0.10;;;20.70;51.00;;;;;;4994055;28;20046;-54
2023/12/26 00:59:24;;;;;;;0.82;0.15;;;20.60;50.90;;;;;;4993106;28;20113;-55
2023/12/26 01:01:50;;;;;;;0.30;0.10;;;20.60;50.90;;;;;;4993642;28;20044;-52
2023/12/26 01:04:17;;;;;;;0.20;0.10;;;20.60;50.90;;;;;;4993833;28;20034;-55
2023/12/26 01:06:43;;;;;;;0.10;0.10;;;20.60;50.90;;;;;;4993852;28;20031;-54
2023/12/26 01:09:09;;;;;;;0.35;0.10;;;20.60;50.90;;;;;;4992039;28;20029;-55
2023/12/26 01:11:35;;;;;;;0.20;0.10;;;20.60;50.90;;;;;;4993588;28;20125;-54
2023/12/26 01:14:02;;;;;;;0.38;0.28;;;20.60;50.80;;;;;;4991729;28;20038;-54
2023/12/26 01:16:28;;;;;;;0.15;0.15;;;20.60;50.80;;;;;;4992239;28;20381;-54
2023/12/26 01:18:55;;;;;;;0.63;0.10;;;20.60;50.80;;;;;;4992967;28;20037;-53
2023/12/26 01:21:20;;;;;;;0.30;0.10;;;20.60;50.80;;;;;;5024988;28;20433;-52
2023/12/26 01:23:46;;;;;;;0.10;0.10;;;20.60;50.80;;;;;;4993282;28;20045;-53
2023/12/26 01:26:13;;;;;;;0.28;0.10;;;20.60;50.80;;;;;;5025452;28;20041;-55
2023/12/26 01:28:39;;;;;;;0.35;0.10;;;20.50;50.70;;;;;;5024145;28;20022;-53
2023/12/26 01:31:05;;;;;;;0.55;0.22;;;20.60;50.80;;;;;;4992826;28;20042;-51
2023/12/26 01:33:32;;;;;;;0.30;0.20;;;20.60;50.80;;;;;;4993221;28;20072;-53
2023/12/26 01:35:59;;;;;;;0.70;0.20;;;20.50;50.70;;;;;;4992248;28;20058;-52
2023/12/26 01:38:25;;;;;;;0.15;0.10;;;20.50;50.70;;;;;;4993345;28;20041;-57
2023/12/26 01:40:50;;;;;;;0.20;0.10;;;20.50;50.70;;;;;;4991996;28;20117;-54
2023/12/26 01:43:17;;;;;;;0.35;0.00;;;20.50;50.60;;;;;;4993241;28;20037;-52
2023/12/26 01:45:43;;;;;;;0.10;0.10;;;20.60;50.70;;;;;;4992320;28;20037;-53
2023/12/26 01:48:10;;;;;;;0.22;0.20;;;20.50;50.60;;;;;;4992878;28;20117;-55
2023/12/26 01:50:37;;;;;;;0.10;0.10;;;20.50;50.60;;;;;;4992811;28;20061;-51
2023/12/26 01:53:03;;;;;;;0.30;0.30;;;20.50;50.60;;;;;;5024978;28;20069;-53
2023/12/26 01:55:30;;;;;;;0.25;0.10;;;20.50;50.60;;;;;;4993248;28;20444;-53
2023/12/26 01:57:57;;;;;;;0.10;0.10;;;20.50;50.60;;;;;;4991445;28;20027;-54
2023/12/26 02:00:23;;;;;;;0.17;0.10;;;20.50;50.60;;;;;;5026685;28;20432;-52
2023/12/26 02:02:54;;;;;;;0.20;0.10;;;20.50;50.60;;;;;;4994783;28;20031;-50
2023/12/26 02:05:21;;;;;;;0.25;0.20;;;20.50;50.60;;;;;;4994969;28;20052;-56
2023/12/26 02:07:47;;;;;;;0.10;0.10;;;20.50;50.60;;;;;;4996158;28;20026;-51
2023/12/26 02:10:13;;;;;;;0.47;0.10;;;20.50;50.60;;;;;;4996300;28;20045;-53
2023/12/26 02:12:38;;;;;;;0.10;0.10;;;20.40;50.60;;;;;;5028882;28;20022;-54
2023/12/26 02:15:05;;;;;;;0.35;0.20;;;20.40;50.60;;;;;;5027876;28;20084;-48
2023/12/26 02:17:33;;;;;;;0.20;0.20;;;20.50;50.60;;;;;;4996176;28;20064;-54
2023/12/26 02:19:59;;;;;;;0.10;0.10;;;20.40;50.60;;;;;;4996129;28;20112;-51
2023/12/26 02:22:24;;;;;;;0.30;0.13;;;20.40;50.60;;;;;;5011906;28;20117;-55
2023/12/26 02:24:50;;;;;;;0.30;0.20;;;20.50;50.60;;;;;;4996269;28;20038;-55
2023/12/26 02:27:24;;;;;;;1.33;0.17;;;20.40;50.60;;;;;;4996142;28;20117;-54
2023/12/26 02:29:53;;;;;;;0.20;0.10;;;20.40;50.60;;;;;;5028102;28;20037;-56
2023/12/26 02:32:25;;;;;;;0.38;0.38;;;20.40;50.60;;;;;;4994733;28;20361;-56
2023/12/26 02:34:56;;;;;;;0.50;0.10;;;20.40;50.60;;;;;;5027655;28;20027;-55
2023/12/26 02:37:26;;;;;;;0.60;0.10;;;20.40;50.60;;;;;;4995875;28;20030;-55
2023/12/26 02:39:52;;;;;;;0.13;0.10;;;20.40;50.60;;;;;;4995156;28;20026;-55
2023/12/26 02:42:21;;;;;;;0.40;0.20;;;20.40;50.60;;;;;;4995330;28;20437;-52
2023/12/26 02:44:48;;;;;;;0.28;0.13;;;20.40;50.60;;;;;;4995882;28;20509;-53
2023/12/26 02:47:14;;;;;;;0.17;0.10;;;20.40;50.60;;;;;;4996207;28;20022;-55
2023/12/26 02:49:41;;;;;;;0.10;0.10;;;20.40;50.60;;;;;;4995900;28;20053;-53
2023/12/26 02:52:07;;;;;;;0.20;0.10;;;20.40;50.60;;;;;;5027616;28;20601;-55
2023/12/26 02:54:32;;;;;;;0.13;0.10;;;20.40;50.70;;;;;;4995793;28;20026;-54
2023/12/26 02:56:59;;;;;;;0.30;0.10;;;20.40;50.60;;;;;;5027759;28;20033;-50
2023/12/26 02:59:28;;;;;;;0.47;0.20;;;20.40;50.60;;;;;;4994468;28;20049;-57
2023/12/26 03:01:54;;;;;;;0.05;0.05;;;20.40;50.50;;;;;;4994296;28;20042;-52
2023/12/26 03:04:20;;;;;;;0.57;0.20;;;20.40;50.40;;;;;;4995367;28;20053;-55
2023/12/26 03:06:46;;;;;;;0.17;0.10;;;20.40;50.40;;;;;;4994397;28;20030;-54
2023/12/26 03:09:12;;;;;;;0.30;0.22;;;20.30;50.30;;;;;;4994922;28;20345;-54
2023/12/26 03:11:38;;;;;;;0.75;0.30;;;20.30;50.20;;;;;;4994412;28;20038;-51
2023/12/26 03:14:04;;;;;;;0.40;0.20;;;20.40;50.20;;;;;;4995232;28;20109;-53
2023/12/26 03:16:29;;;;;;;0.68;0.20;;;20.30;50.10;;;;;;4995173;28;20034;-54
2023/12/26 03:18:55;;;;;;;0.20;0.20;;;20.30;50.10;;;;;;4994647;28;20050;-53
2023/12/26 03:21:22;;;;;;;0.90;0.20;;;20.40;50.10;;;;;;4991059;28;20022;-49
2023/12/26 03:23:47;;;;;;;0.50;0.20;;;20.30;50.10;;;;;;4993854;28;20121;-53
2023/12/26 03:26:14;;;;;;;0.70;0.20;;;20.30;50.10;;;;;;4995128;28;20027;-52
2023/12/26 03:28:39;;;;;;;0.40;0.20;;;20.30;50.10;;;;;;4995541;28;20034;-53
2023/12/26 03:31:06;;;;;;;1.20;0.55;;;20.30;50.10;;;;;;4994506;28;20084;-54
2023/12/26 03:33:35;;;;;;;1.48;0.35;;;20.30;50.10;;;;;;5025190;28;20449;-50
2023/12/26 03:36:02;;;;;;;0.63;0.30;;;20.30;50.10;;;;;;4993643;28;20031;-53
2023/12/26 03:38:29;;;;;;;0.95;0.30;;;20.30;50.10;;;;;;4994914;28;20029;-56
2023/12/26 03:40:55;;;;;;;0.85;0.32;;;20.30;50.10;;;;;;4994797;28;20349;-51
2023/12/26 03:43:21;;;;;;;0.68;0.22;;;20.30;50.10;;;;;;4977790;28;20026;-55
2023/12/26 03:45:48;;;;;;;0.43;0.20;;;20.30;50.10;;;;;;5026131;28;20088;-54
2023/12/26 03:48:15;;;;;;;2.05;0.60;;;20.30;50.10;;;;;;5025972;28;20499;-52
2023/12/26 03:50:41;;;;;;;0.90;0.30;;;20.30;50.10;;;;;;4992924;28;20141;-51
2023/12/26 03:53:07;;;;;;;0.85;0.40;;;20.30;50.00;;;;;;4993748;28;20112;-52
2023/12/26 03:55:34;;;;;;;0.80;0.28;;;20.30;50.00;;;;;;4994545;28;20030;-53
2023/12/26 03:58:00;;;;;;;1.02;0.32;;;20.30;50.00;;;;;;4992799;28;20092;-54
2023/12/26 04:00:28;;;;;;;0.70;0.30;;;20.30;50.00;;;;;;4993780;28;20034;-54
2023/12/26 04:02:54;;;;;;;0.93;0.22;;;20.30;49.90;;;;;;4994486;28;20040;-55
2023/12/26 04:05:20;;;;;;;0.80;0.40;;;20.30;49.90;;;;;;5025982;28;20062;-55
2023/12/26 04:07:46;;;;;;;0.40;0.22;;;20.30;49.80;;;;;;4992110;28;20366;-51
2023/12/26 04:10:12;;;;;;;1.80;0.50;;;20.30;49.80;;;;;;5023958;28;20040;-52
2023/12/26 04:12:37;;;;;;;0.95;0.50;;;20.20;49.70;;;;;;4993152;28;20117;-55
2023/12/26 04:15:04;;;;;;;1.45;0.40;;;20.30;49.70;;;;;;4993560;28;20979;-55
2023/12/26 04:17:30;;;;;;;0.98;0.40;;;20.20;49.60;;;;;;4993591;28;20045;-53
2023/12/26 04:19:56;;;;;;;1.65;0.40;;;20.30;49.60;;;;;;5025736;28;20030;-54
2023/12/26 04:22:22;;;;;;;0.80;0.30;;;20.30;49.60;;;;;;4994164;28;20113;-53
2023/12/26 04:24:47;;;;;;;0.63;0.25;;;20.20;49.50;;;;;;4993215;28;20042;-51
2023/12/26 04:27:13;;;;;;;0.85;0.50;;;20.20;49.40;;;;;;4993955;28;20030;-50
2023/12/26 04:29:39;;;;;;;1.00;0.30;;;20.20;49.40;;;;;;4992752;28;20022;-50
2023/12/26 04:32:06;;;;;;;0.57;0.30;;;20.20;49.30;;;;;;4993702;28;20117;-52
2023/12/26 04:34:32;;;;;;;0.30;0.28;;;20.20;49.20;;;;;;4992837;28;20058;-50
2023/12/26 04:36:58;;;;;;;0.93;0.30;;;20.20;49.10;;;;;;4992812;28;20045;-53
2023/12/26 04:39:24;;;;;;;1.33;0.30;;;20.20;49.10;;;;;;4992332;28;20449;-54
2023/12/26 04:41:50;;;;;;;1.02;0.38;;;20.20;49.00;;;;;;4993748;28;20026;-51
2023/12/26 04:44:16;;;;;;;1.10;0.30;;;20.20;49.00;;;;;;4992670;28;20034;-55
2023/12/26 04:46:41;;;;;;;0.55;0.22;;;20.20;48.90;;;;;;4993909;28;20038;-50
2023/12/26 04:49:08;;;;;;;0.63;0.30;;;20.20;48.80;;;;;;4994081;28;20112;-53
2023/12/26 04:51:34;;;;;;;0.22;0.13;;;20.20;48.80;;;;;;4992303;28;20457;-52
2023/12/26 04:54:01;;;;;;;0.93;0.22;;;20.20;48.70;;;;;;4992180;28;20096;-51
2023/12/26 04:56:27;;;;;;;0.80;0.22;;;20.20;48.60;;;;;;4993508;28;20333;-53
2023/12/26 04:58:53;;;;;;;0.60;0.30;;;20.10;48.50;;;;;;4992389;28;20521;-54
2023/12/26 05:01:20;;;;;;;0.35;0.17;;;20.10;48.40;;;;;;4993577;28;20129;-52
2023/12/26 05:03:47;;;;;;;0.63;0.30;;;20.20;48.40;;;;;;5025258;28;20527;-53
2023/12/26 05:06:17;;;;;;;0.93;0.40;;;20.20;48.30;;;;;;5025429;28;20034;-50
2023/12/26 05:08:43;;;;;;;1.60;0.50;;;20.10;48.10;;;;;;5008308;28;20508;-54
2023/12/26 05:11:09;;;;;;;1.77;0.45;;;20.10;48.10;;;;;;5024908;28;20037;-50
2023/12/26 05:13:36;;;;;;;0.77;0.30;;;20.20;48.10;;;;;;5025110;28;20045;-50
2023/12/26 05:16:03;;;;;;;0.80;0.30;;;20.10;48.00;;;;;;5024926;28;20024;-55
2023/12/26 05:18:30;;;;;;;2.15;0.70;;;20.10;47.90;;;;;;4991618;28;20026;-54
2023/12/26 05:20:56;;;;;;;0.63;0.30;;;20.10;47.90;;;;;;4991654;28;20034;-50
2023/12/26 05:23:22;;;;;;;1.58;0.30;;;20.10;47.90;;;;;;5024979;28;20033;-51
2023/12/26 05:25:48;;;;;;;1.02;0.35;;;20.10;47.80;;;;;;5025091;28;20030;-52
2023/12/26 05:28:14;;;;;;;0.80;0.20;;;20.10;47.70;;;;;;5024849;28;20030;-55
2023/12/26 05:30:40;;;;;;;0.43;0.20;;;20.10;47.70;;;;;;4992720;28;20052;-50
2023/12/26 05:33:06;;;;;;;0.90;0.50;;;20.10;47.70;;;;;;4992068;28;20042;-52
2023/12/26 05:35:32;;;;;;;0.82;0.38;;;20.10;47.70;;;;;;4994868;28;20026;-52
2023/12/26 05:37:58;;;;;;;0.82;0.50;;;20.10;47.60;;;;;;5029304;28;20026;-52
2023/12/26 05:40:24;;;;;;;0.90;0.50;;;20.10;47.50;;;;;;4995371;28;20180;-53
2023/12/26 05:42:50;;;;;;;0.98;0.35;;;20.10;47.50;;;;;;4994205;28;20100;-52
2023/12/26 05:45:17;;;;;;;1.83;0.50;;;20.10;47.50;;;;;;4995279;28;20046;-53
2023/12/26 05:47:43;;;;;;;1.60;0.55;;;20.10;47.50;;;;;;5012278;28;20046;-50
2023/12/26 05:50:09;;;;;;;0.65;0.20;;;20.10;47.40;;;;;;4979266;28;20050;-54
2023/12/26 05:52:35;;;;;;;0.88;0.40;;;20.10;47.40;;;;;;4996009;28;20481;-52
2023/12/26 05:55:01;;;;;;;1.35;0.40;;;20.10;47.50;;;;;;4997041;28;20045;-51
2023/12/26 05:57:27;;;;;;;0.85;0.32;;;20.10;47.30;;;;;;5011867;28;20037;-55
2023/12/26 05:59:53;;;;;;;0.80;0.40;;;20.10;47.30;;;;;;4994941;28;20026;-55
2023/12/26 06:02:19;;;;;;;1.02;0.30;;;20.10;47.20;;;;;;4995117;28;20037;-54
2023/12/26 06:04:45;;;;;;;1.20;0.30;;;20.00;47.10;;;;;;4994764;28;20030;-53
2023/12/26 06:07:14;;;;;;;0.93;0.25;;;20.00;47.00;;;;;;4994833;28;20045;-55
2023/12/26 06:09:40;;;;;;;0.80;0.38;;;20.00;47.00;;;;;;4995399;28;20034;-54
2023/12/26 06:12:06;;;;;;;0.88;0.40;;;20.00;46.90;;;;;;4994750;28;20053;-55
2023/12/26 06:14:32;;;;;;;1.92;0.50;;;20.00;46.90;;;;;;5026945;28;20034;-54
2023/12/26 06:17:00;;;;;;;0.63;0.20;;;20.00;46.80;;;;;;5008989;28;20037;-54
2023/12/26 06:19:26;;;;;;;0.80;0.30;;;20.00;46.80;;;;;;4995111;28;20022;-54
2023/12/26 06:21:52;;;;;;;1.60;0.30;;;20.00;46.70;;;;;;4994332;28;20398;-55
2023/12/26 06:24:18;;;;;;;1.73;0.45;;;20.00;46.60;;;;;;5027477;28;20069;-55
2023/12/26 06:26:44;;;;;;;2.75;0.50;;;20.00;46.60;;;;;;5027435;28;20057;-49
2023/12/26 06:29:10;;;;;;;0.82;0.30;;;20.00;46.50;;;;;;4995558;28;20148;-51
2023/12/26 06:31:36;;;;;;;1.48;0.52;;;20.00;46.40;;;;;;4994456;28;20030;-56
2023/12/26 06:34:02;;;;;;;1.00;0.40;;;20.00;46.40;;;;;;4994357;28;20031;-53
2023/12/26 06:36:30;;;;;;;1.98;0.50;;;20.00;46.30;;;;;;5008004;28;20034;-52
2023/12/26 06:39:00;;;;;;;1.17;0.45;;;20.00;46.30;;;;;;5026252;28;20128;-57
2023/12/26 06:41:30;;;;;;;0.85;0.30;;;20.00;46.20;;;;;;5027034;28;20140;-48
2023/12/26 06:43:57;;;;;;;1.27;0.70;;;20.00;46.10;;;;;;4993863;28;20034;-50
2023/12/26 06:46:23;;;;;;;1.42;0.50;;;20.00;46.10;;;;;;4992803;28;20034;-56
2023/12/26 06:48:49;;;;;;;1.60;0.50;;;19.90;46.00;;;;;;4993940;28;20393;-53
2023/12/26 06:51:16;;;;;;;1.63;0.50;;;19.90;46.00;;;;;;4993064;28;20046;-54
2023/12/26 06:53:43;;;;;;;2.03;0.40;;;19.90;45.90;;;;;;4994210;28;20030;-54
2023/12/26 06:56:09;;;;;;;1.52;0.40;;;20.00;45.90;;;;;;4995670;28;20038;-50
2023/12/26 06:58:34;;;;;;;1.40;0.55;;;19.90;45.70;;;;;;5026635;28;20030;-54
2023/12/26 07:01:01;;;;;;;1.15;0.43;;;19.90;45.70;;;;;;5010127;28;20040;-54
2023/12/26 07:03:27;;;;;;;1.80;0.43;;;19.90;45.70;;;;;;4993842;28;20041;-52
2023/12/26 07:05:53;;;;;;;2.13;0.50;;;19.90;45.70;;;;;;4993789;28;20030;-51
2023/12/26 07:08:20;;;;;;;0.70;0.40;;;19.90;45.70;;;;;;4993920;28;20034;-53
2023/12/26 07:10:46;;;;;;;1.23;0.43;;;19.90;45.60;;;;;;4994527;28;20026;-50
2023/12/26 07:13:12;;;;;;;1.77;0.47;;;19.90;45.50;;;;;;4994753;28;20027;-51
2023/12/26 07:15:38;;;;;;;1.42;0.50;;;19.90;45.40;;;;;;4994620;28;20033;-55
2023/12/26 07:18:04;;;;;;;1.60;0.50;;;19.90;45.40;;;;;;4994704;28;20376;-53
2023/12/26 07:20:30;;;;;;;1.65;0.43;;;19.90;45.30;;;;;;4994412;28;20109;-57
2023/12/26 07:22:56;;;;;;;2.67;0.60;;;19.90;45.20;;;;;;4994564;28;20129;-49
2023/12/26 07:25:22;;;;;;;1.42;0.47;;;19.90;45.10;;;;;;4993967;28;20038;-51
2023/12/26 07:27:48;;;;;;;0.88;0.30;;;19.90;45.10;;;;;;4995114;28;20030;-51
2023/12/26 07:30:14;;;;;;;0.73;0.40;;;19.90;45.00;;;;;;4994437;28;20349;-54
2023/12/26 07:32:40;;;;;;;1.52;0.52;;;19.90;45.50;;;;;;4994202;28;20152;-53
2023/12/26 07:35:06;;;;;;;1.48;0.50;;;19.90;44.80;;;;;;4994256;28;20362;-49
2023/12/26 07:37:32;;;;;;;2.40;0.60;;;19.90;44.70;;;;;;4994305;28;20030;-52
2023/12/26 07:39:58;;;;;;;2.65;0.70;;;19.90;44.60;;;;;;4993939;28;20030;-56
2023/12/26 07:42:24;;;;;;;1.15;0.40;;;19.90;44.50;;;;;;4994110;28;20045;-51
2023/12/26 07:44:50;;;;;;;1.27;0.50;;;19.90;44.50;;;;;;4993657;28;20445;-50
2023/12/26 07:47:15;;;;;;;1.38;0.50;;;19.90;44.40;;;;;;4993526;28;20036;-54
2023/12/26 07:49:42;;;;;;;1.73;0.52;;;19.90;44.40;;;;;;4993624;28;20097;-55
2023/12/26 07:52:07;;;;;;;2.65;0.68;;;19.90;44.30;;;;;;4993765;28;20049;-55
2023/12/26 07:54:33;;;;;;;2.95;0.98;;;20.00;44.30;;;;;;4994222;28;20034;-51
2023/12/26 07:56:59;;;;;;;1.83;0.60;;;20.00;44.30;;;;;;4994062;28;20022;-51
2023/12/26 07:59:25;;;;;;;2.08;0.57;;;20.00;44.20;;;;;;4994036;28;20466;-54
2023/12/26 08:01:51;;;;;;;3.72;0.98;;;20.00;44.10;;;;;;4993599;28;20437;-53
2023/12/26 08:04:17;;;;;;;2.72;0.63;;;19.90;44.00;;;;;;4991825;28;20356;-53
2023/12/26 08:06:42;;;;;;;2.25;0.40;;;20.00;44.00;;;;;;4993845;28;20034;-53
2023/12/26 08:09:08;;;;;;;2.60;0.50;;;20.00;44.00;;;;;;4994277;28;20054;-53
2023/12/26 08:11:35;;;;;;;1.83;0.60;;;20.00;44.00;;;;;;4992880;28;20034;-53
2023/12/26 08:14:01;;;;;;;1.90;0.50;;;20.00;43.90;;;;;;4993708;28;20034;-52
2023/12/26 08:16:27;;;;;;;1.60;0.55;;;20.00;43.80;;;;;;4993975;28;20037;-49
2023/12/26 08:18:54;;;;;;;1.88;0.55;;;20.00;43.80;;;;;;4994740;28;20033;-51
2023/12/26 08:21:20;;;;;;;2.15;0.63;;;20.00;43.70;;;;;;4993059;28;20105;-51
2023/12/26 08:23:46;;;;;;;1.95;0.70;;;20.00;43.70;;;;;;4993726;28;20125;-55
2023/12/26 08:26:11;;;;;;;2.28;0.60;;;20.00;43.60;;;;;;4993970;28;20034;-54
2023/12/26 08:28:37;;;;;;;2.17;0.80;;;20.00;43.50;;;;;;4993700;28;20045;-52
2023/12/26 08:31:03;;;;;;;3.17;0.73;;;20.00;43.40;;;;;;4993903;28;20364;-55
2023/12/26 08:33:31;;;;;;;3.67;0.85;;;20.00;43.40;;;;;;4993084;28;20061;-53
2023/12/26 08:35:57;;;;;;;1.75;0.70;;;20.00;43.30;;;;;;4993820;28;20527;-53
2023/12/26 08:38:23;;;;;;;1.40;0.60;;;20.00;43.20;;;;;;4994392;28;20033;-53
2023/12/26 08:40:50;;;;;;;1.77;0.57;;;20.00;43.20;;;;;;4994826;28;20180;-55
2023/12/26 08:43:16;;;;;;;2.20;0.50;;;20.00;43.10;;;;;;4994167;28;20437;-52
2023/12/26 08:45:42;;;;;;;1.83;0.60;;;20.00;43.10;;;;;;4994537;28;20042;-53
2023/12/26 08:48:09;;;;;;;2.10;0.70;;;20.00;43.00;;;;;;4994649;28;20042;-55
2023/12/26 08:50:36;;;;;;;1.73;0.60;;;20.00;42.90;;;;;;4993931;28;20038;-54
2023/12/26 08:53:01;;;;;;;2.22;0.55;;;20.00;42.90;;;;;;4994794;28;20048;-53
2023/12/26 08:55:27;;;;;;;2.97;0.70;;;20.00;42.80;;;;;;4993250;28;20030;-48
2023/12/26 08:57:53;;;;;;;2.63;1.00;;;20.00;42.80;;;;;;4994307;28;20121;-50
2023/12/26 09:00:19;;;;;;;2.38;0.70;;;20.00;42.90;;;;;;4995463;28;20050;-53
2023/12/26 09:02:45;;;;;;;2.15;0.55;;;20.00;42.90;;;;;;4994898;28;20189;-54
2023/12/26 09:05:12;;;;;;;1.40;0.50;;;20.00;42.90;;;;;;4994674;28;20030;-53
2023/12/26 09:07:38;;;;;;;1.40;0.60;;;20.00;42.90;;;;;;4993937;28;20053;-52
2023/12/26 09:10:07;;;;;;;2.22;0.70;;;20.00;42.90;;;;;;4993357;28;20034;-52
2023/12/26 09:12:33;;;;;;;1.83;0.75;;;20.10;42.90;;;;;;4992772;28;20030;-49
2023/12/26 09:14:59;;;;;;;1.27;0.60;;;20.10;42.90;;;;;;4998520;28;20023;-53
2023/12/26 09:17:25;;;;;;;1.40;0.60;;;20.10;42.90;;;;;;4993624;28;21148;-52
2023/12/26 09:19:51;;;;;;;1.98;0.60;;;20.20;42.90;;;;;;4994008;28;20026;-54
2023/12/26 09:22:16;;;;;;;1.65;0.75;;;20.20;42.90;;;;;;4993790;28;20027;-51
2023/12/26 09:24:43;;;;;;;1.70;0.70;;;20.30;42.90;;;;;;4993382;28;20052;-49
2023/12/26 09:27:09;;;;;;;2.38;0.80;;;20.30;42.90;;;;;;4993977;28;20034;-52
2023/12/26 09:29:35;;;;;;;2.65;0.80;;;20.30;42.90;;;;;;4993740;28;20041;-53
2023/12/26 09:32:01;;;;;;;1.52;0.90;;;20.40;42.90;;;;;;4991247;28;20030;-56
2023/12/26 09:34:27;;;;;;;1.67;0.77;;;20.40;42.90;;;;;;4993768;28;20026;-56
2023/12/26 09:36:53;;;;;;;1.90;0.80;;;20.40;42.90;;;;;;4994061;28;20076;-53
2023/12/26 09:39:19;;;;;;;1.70;0.60;;;20.50;42.90;;;;;;4994029;28;20031;-55
2023/12/26 09:41:52;;;;;;;1.85;0.88;;;20.50;42.90;;;;;;4993394;28;20030;-55
2023/12/26 09:44:20;;;;;;;1.30;0.60;;;20.60;42.90;;;;;;4993322;28;20196;-53
2023/12/26 09:46:46;;;;;;;3.05;0.90;;;20.60;42.90;;;;;;4993838;28;20266;-52
2023/12/26 09:49:12;;;;;;;1.77;0.90;;;20.60;42.90;;;;;;4994043;28;20057;-54
2023/12/26 09:51:45;;;;;;;2.47;0.80;;;20.60;42.90;;;;;;4993608;28;20370;-52
2023/12/26 09:54:12;;;;;;;2.80;0.88;;;20.70;42.80;;;;;;4993390;28;20350;-51
2023/12/26 09:56:42;;;;;;;3.17;0.88;;;20.70;42.80;;;;;;4993950;28;20030;-56
2023/12/26 09:59:09;;;;;;;2.35;0.75;;;20.70;42.70;;;;;;4994026;28;20030;-50
2023/12/26 10:01:35;;;;;;;2.42;0.80;;;20.70;42.70;;;;;;4995968;28;20038;-52
2023/12/26 10:04:03;;;;;;;1.75;0.60;;;20.80;42.70;;;;;;4993899;28;20050;-50
2023/12/26 10:06:29;;;;;;;2.63;0.80;;;20.80;42.60;;;;;;4994097;28;20034;-53
2023/12/26 10:08:55;;;;;;;2.25;0.90;;;20.80;42.50;;;;;;4992475;28;20064;-52
2023/12/26 10:11:21;;;;;;;2.20;0.70;;;20.80;42.50;;;;;;4991713;28;20054;-51
2023/12/26 10:13:52;;;;;;;2.72;0.77;;;20.90;42.50;;;;;;4992774;28;20030;-54
2023/12/26 10:16:19;;;;;;;2.60;0.75;;;20.90;42.40;;;;;;4993426;28;20460;-53
2023/12/26 10:18:46;;;;;;;3.70;1.00;;;20.90;42.40;;;;;;4993517;28;20449;-54
2023/12/26 10:21:13;;;;;;;4.38;1.08;;;20.90;42.40;;;;;;4995123;28;20061;-50
2023/12/26 10:23:39;;;;;;;3.60;0.88;;;20.90;42.40;;;;;;4996754;28;20030;-52
2023/12/26 10:26:06;;;;;;;1.63;0.88;;;20.90;42.40;;;;;;4997277;28;20030;-51
2023/12/26 10:28:39;;;;;;;3.20;0.80;;;20.90;42.40;;;;;;4994509;28;20026;-50
2023/12/26 10:31:13;;;;;;;1.83;0.70;;;20.90;42.30;;;;;;4996039;28;20026;-52
2023/12/26 10:33:40;;;;;;;1.30;0.50;;;20.90;42.30;;;;;;4996689;28;20113;-50
2023/12/26 10:36:08;;;;;;;2.88;1.00;;;20.90;42.30;;;;;;4997066;28;20041;-53
2023/12/26 10:38:34;;;;;;;2.90;0.77;;;20.90;42.20;;;;;;4996905;28;20032;-53
2023/12/26 10:41:05;;;;;;;2.42;0.70;;;21.00;42.20;;;;;;4996487;28;20050;-51
2023/12/26 10:43:32;;;;;;;2.92;1.02;;;21.00;42.10;;;;;;4996844;28;20080;-52
2023/12/26 10:45:59;;;;;;;1.98;0.80;;;21.00;42.10;;;;;;4996853;28;20069;-56
2023/12/26 10:48:31;;;;;;;2.88;0.80;;;21.00;42.00;;;;;;4996785;28;20037;-50
2023/12/26 10:50:59;;;;;;;2.85;0.82;;;21.00;42.00;;;;;;4995733;28;20053;-55
2023/12/26 10:53:31;;;;;;;2.47;0.65;;;21.00;41.90;;;;;;4996555;28;20029;-53
2023/12/26 10:55:58;;;;;;;1.52;0.70;;;21.00;41.90;;;;;;4996516;28;20121;-49
2023/12/26 10:58:29;;;;;;;3.38;1.15;;;21.00;41.90;;;;;;4996473;28;20034;-55
2023/12/26 13:54:07;;;;;;;1.15;0.60;;;22.00;40.00;;;;;;4991593;28;20458;-48
2023/12/26 13:56:33;;;;;;;2.63;0.70;;;21.90;40.00;;;;;;4994736;28;20026;-52
2023/12/26 13:58:58;;;;;;;2.40;0.80;;;21.90;40.10;;;;;;4996838;28;20033;-48
2023/12/26 14:01:25;;;;;;;2.50;0.82;;;21.80;40.10;;;;;;4995516;28;20019;-46
2023/12/26 14:03:51;;;;;;;1.58;0.65;;;21.80;40.10;;;;;;4996503;28;20023;-47
2023/12/26 14:06:18;;;;;;;1.73;0.68;;;21.80;40.10;;;;;;4996110;28;20549;-50
2023/12/26 14:08:49;;;;;;;1.20;0.60;;;21.80;40.00;;;;;;4996636;28;20030;-51
2023/12/26 14:11:19;;;;;;;2.42;0.63;;;21.80;40.00;;;;;;4995219;28;20109;-46
2023/12/26 14:13:48;;;;;;;1.42;0.63;;;21.70;39.90;;;;;;4996202;28;20037;-53
2023/12/26 14:16:18;;;;;;;1.85;0.63;;;21.70;39.90;;;;;;4996301;28;20027;-55
2023/12/26 14:18:44;;;;;;;2.55;0.77;;;21.70;39.80;;;;;;4997093;28;20022;-55
2023/12/26 14:22:23;;;;;;;1.75;0.50;;;21.80;39.70;;;;;;5202418;23;20020;-61
2023/12/26 14:25:28;;;;;;;1.20;0.52;;;22.00;39.70;;;;;;4977675;28;20042;-61
2023/12/26 14:28:31;;;;;;;1.85;0.60;;;22.10;39.50;;;;;;4963742;28;20039;-61
2023/12/26 14:31:35;;;;;;;3.95;0.80;;;22.20;39.30;;;;;;4960679;28;20054;-60
2023/12/26 14:34:38;;;;;;;2.55;0.55;;;22.30;39.20;;;;;;4963670;28;20361;-60
2023/12/26 14:37:41;;;;;;;1.92;0.60;;;22.30;39.10;;;;;;4978038;28;20035;-60
2023/12/26 14:40:45;;;;;;;2.13;0.65;;;22.20;39.10;;;;;;4965412;28;20030;-59
2023/12/26 14:43:53;;;;;;;2.85;0.90;;;22.20;39.10;;;;;;4978914;28;20315;-60
2023/12/26 14:46:56;;;;;;;2.58;0.95;;;22.10;39.10;;;;;;4963124;28;20093;-60
2023/12/26 14:50:00;;;;;;;2.22;0.85;;;22.10;39.10;;;;;;4969983;28;20035;-60
2023/12/26 14:53:04;;;;;;;1.10;0.60;;;22.10;39.20;;;;;;4969401;28;20022;-59
2023/12/26 14:56:08;;;;;;;1.80;0.57;;;22.10;39.20;;;;;;4978758;28;20041;-60
2023/12/26 14:59:11;;;;;;;2.25;0.90;;;22.00;39.10;;;;;;4958028;28;20031;-60
2023/12/26 15:01:57;;;;;;;1.02;0.40;;;22.00;39.10;;;;;;4958276;29;20046;-60
2023/12/26 15:04:26;;;;;;;1.80;0.80;;;22.00;39.10;;;;;;4977078;28;20066;-60
2023/12/26 15:06:58;;;;;;;1.65;0.63;;;22.00;39.20;;;;;;4959508;28;20125;-60
2023/12/26 15:09:24;;;;;;;1.52;0.77;;;22.00;39.10;;;;;;4963024;28;20027;-60
2023/12/26 15:11:51;;;;;;;1.63;0.57;;;22.00;39.20;;;;;;4959733;28;20031;-61
2023/12/26 15:14:17;;;;;;;1.00;0.60;;;21.90;39.10;;;;;;4960178;28;20027;-60
2023/12/26 15:16:43;;;;;;;2.90;0.80;;;21.90;39.00;;;;;;4974131;28;20031;-59
2023/12/26 15:19:09;;;;;;;2.53;1.00;;;21.90;39.00;;;;;;4962428;28;20031;-60
2023/12/26 15:21:44;;;;;;;1.15;0.63;;;21.90;39.00;;;;;;4962104;28;20445;-60
2023/12/26 15:24:11;;;;;;;3.33;0.80;;;21.90;39.00;;;;;;4970680;28;20077;-60
2023/12/26 15:26:38;;;;;;;1.77;0.57;;;21.90;39.00;;;;;;4964558;28;20369;-59
2023/12/26 15:29:04;;;;;;;0.70;0.50;;;21.90;39.00;;;;;;4972992;28;20035;-60
2023/12/26 15:31:30;;;;;;;1.75;0.80;;;21.90;39.00;;;;;;4965162;28;20445;-60
2023/12/26 15:33:56;;;;;;;1.98;0.60;;;21.90;39.10;;;;;;4965244;28;20461;-60
2023/12/26 15:36:23;;;;;;;2.30;0.85;;;21.90;39.10;;;;;;4977672;28;20055;-60
2023/12/26 15:38:50;;;;;;;1.17;0.60;;;21.90;39.00;;;;;;4971225;28;20039;-60
2023/12/26 15:41:23;;;;;;;2.05;0.95;;;21.90;39.00;;;;;;4962236;28;20031;-60
2023/12/26 15:43:52;;;;;;;1.75;0.70;;;21.90;39.00;;;;;;4973407;28;20038;-61
2023/12/26 15:46:23;;;;;;;1.92;0.70;;;21.90;39.00;;;;;;4969649;28;20027;-60